createdAt,value
2023-01-11T00:01:25.635Z,1.11
2023-01-11T00:02:57.223Z,1.63
2023-01-11T00:04:28.514Z,2.06
2023-01-11T00:05:59.779Z,1.30
2023-01-11T00:07:31.064Z,1.73
2023-01-11T00:09:02.396Z,1.79
2023-01-11T00:10:33.668Z,1.27
2023-01-11T00:12:05.322Z,1.88
2023-01-11T00:13:36.637Z,1.97
2023-01-11T00:15:07.901Z,1.66
2023-01-11T00:16:39.218Z,1.69
2023-01-11T00:18:10.689Z,1.45
2023-01-11T00:19:42.019Z,1.15
2023-01-11T00:21:13.238Z,0.98
2023-01-11T00:22:44.648Z,1.24
2023-01-11T00:24:15.918Z,1.26
2023-01-11T00:25:47.215Z,1.36
2023-01-11T00:27:18.711Z,1.18
2023-01-11T00:28:50.115Z,1.03
2023-01-11T00:30:21.506Z,1.05
2023-01-11T00:31:52.757Z,1.90
2023-01-11T00:33:24.034Z,1.14
2023-01-11T00:34:55.333Z,1.60
2023-01-11T00:36:26.776Z,1.24
2023-01-11T00:37:58.113Z,1.42
2023-01-11T00:39:29.366Z,2.93
2023-01-11T00:41:00.644Z,1.47
2023-01-11T00:42:31.990Z,1.59
2023-01-11T00:44:03.434Z,0.67
2023-01-11T00:45:34.995Z,0.83
2023-01-11T00:47:06.206Z,1.73
2023-01-11T00:48:37.492Z,0.70
2023-01-11T00:50:09.891Z,1.06
2023-01-11T00:51:41.268Z,0.68
2023-01-11T00:53:12.495Z,1.11
2023-01-11T00:54:43.880Z,1.13
2023-01-11T00:56:15.298Z,1.05
2023-01-11T00:57:46.750Z,1.33
2023-01-11T00:59:18.041Z,1.15
2023-01-11T01:00:49.546Z,0.74
2023-01-11T01:02:22.196Z,1.12
2023-01-11T01:03:53.677Z,1.29
2023-01-11T01:05:25.022Z,0.63
2023-01-11T01:06:56.640Z,0.73
2023-01-11T01:08:28.146Z,0.44
2023-01-11T01:09:59.420Z,1.34
2023-01-11T01:11:30.794Z,1.57
2023-01-11T01:13:02.161Z,0.84
2023-01-11T01:14:33.567Z,0.81
2023-01-11T01:16:05.063Z,1.89
2023-01-11T01:17:36.389Z,1.14
2023-01-11T01:19:07.666Z,0.53
2023-01-11T01:20:39.150Z,0.93
2023-01-11T01:22:10.442Z,0.80
2023-01-11T01:23:41.836Z,0.93
2023-01-11T01:25:13.357Z,0.91
2023-01-11T01:26:44.712Z,0.68
2023-01-11T01:28:15.965Z,0.70
2023-01-11T01:29:47.476Z,1.04
2023-01-11T01:31:18.866Z,1.07
2023-01-11T01:32:50.315Z,1.19
2023-01-11T01:34:21.618Z,0.81
2023-01-11T01:35:53.033Z,1.46
2023-01-11T01:37:24.376Z,0.75
2023-01-11T01:38:55.735Z,0.77
2023-01-11T01:40:27.273Z,1.95
2023-01-11T01:41:58.769Z,0.94
2023-01-11T01:43:30.149Z,0.96
2023-01-11T01:45:01.908Z,0.86
2023-01-11T01:46:33.409Z,1.13
2023-01-11T01:48:04.811Z,0.95
2023-01-11T01:49:36.086Z,0.61
2023-01-11T01:51:07.579Z,0.90
2023-01-11T01:52:38.956Z,1.08
2023-01-11T01:54:10.231Z,1.22
2023-01-11T01:55:41.562Z,0.70
2023-01-11T01:57:17.807Z,0.79
2023-01-11T01:58:49.319Z,1.16
2023-01-11T02:00:20.708Z,1.49
2023-01-11T02:01:52.022Z,1.32
2023-01-11T02:03:23.561Z,1.45
2023-01-11T02:04:55.066Z,0.62
2023-01-11T02:06:26.437Z,1.07
2023-01-11T02:07:58.088Z,0.56
2023-01-11T02:09:29.496Z,0.60
2023-01-11T02:11:00.900Z,1.12
2023-01-11T02:12:32.232Z,0.96
2023-01-11T02:14:03.456Z,0.73
2023-01-11T02:15:34.730Z,0.89
2023-01-11T02:17:05.958Z,1.06
2023-01-11T02:18:38.057Z,1.41
2023-01-11T02:20:09.300Z,1.12
2023-01-11T02:21:40.570Z,1.27
2023-01-11T02:23:11.784Z,1.34
2023-01-11T02:24:43.082Z,1.08
2023-01-11T02:26:14.433Z,0.66
2023-01-11T02:27:45.757Z,1.11
2023-01-11T02:29:17.144Z,0.77
2023-01-11T02:30:48.545Z,0.59
2023-01-11T02:32:19.778Z,1.21
2023-01-11T02:33:51.095Z,0.62
2023-01-11T02:35:22.388Z,0.43
2023-01-11T02:36:53.768Z,0.66
2023-01-11T02:38:25.373Z,0.49
2023-01-11T02:39:56.679Z,0.52
2023-01-11T02:41:28.046Z,0.92
2023-01-11T02:42:59.629Z,1.33
2023-01-11T02:44:31.012Z,1.19
2023-01-11T02:46:02.377Z,0.86
2023-01-11T02:47:33.787Z,0.74
2023-01-11T02:49:05.299Z,1.15
2023-01-11T02:50:36.553Z,1.44
2023-01-11T02:52:07.904Z,1.05
2023-01-11T02:53:39.341Z,0.59
2023-01-11T02:55:10.583Z,0.60
2023-01-11T02:56:42.091Z,0.60
2023-01-11T02:58:13.553Z,1.34
2023-01-11T02:59:45.063Z,0.48
2023-01-11T03:01:16.648Z,0.59
2023-01-11T03:02:48.156Z,0.57
2023-01-11T03:04:19.475Z,0.78
2023-01-11T03:05:50.809Z,0.90
2023-01-11T03:07:22.281Z,0.84
2023-01-11T03:08:58.583Z,1.01
2023-01-11T03:10:30.192Z,0.78
2023-01-11T03:12:01.501Z,0.72
2023-01-11T03:13:32.939Z,1.06
2023-01-11T03:15:04.147Z,0.62
2023-01-11T03:16:35.389Z,0.65
2023-01-11T03:18:06.803Z,0.51
2023-01-11T03:19:38.190Z,0.64
2023-01-11T03:21:09.447Z,0.53
2023-01-11T03:22:40.723Z,1.50
2023-01-11T03:24:12.414Z,0.47
2023-01-11T03:25:43.881Z,0.44
2023-01-11T03:27:15.209Z,0.49
2023-01-11T03:28:46.482Z,0.59
2023-01-11T03:30:17.778Z,0.58
2023-01-11T03:31:49.165Z,0.75
2023-01-11T03:33:20.598Z,0.85
2023-01-11T03:34:51.890Z,0.77
2023-01-11T03:36:23.183Z,0.45
2023-01-11T03:37:54.484Z,0.60
2023-01-11T03:39:25.853Z,1.30
2023-01-11T03:41:02.195Z,0.61
2023-01-11T03:42:38.497Z,1.05
2023-01-11T03:44:09.748Z,0.63
2023-01-11T03:45:40.983Z,0.81
2023-01-11T03:47:12.173Z,0.66
2023-01-11T03:48:43.499Z,0.67
2023-01-11T03:50:14.813Z,0.65
2023-01-11T03:51:46.105Z,0.70
2023-01-11T03:53:17.391Z,0.91
2023-01-11T03:54:48.696Z,1.58
2023-01-11T03:56:20.095Z,0.75
2023-01-11T03:57:51.481Z,0.57
2023-01-11T03:59:22.858Z,1.37
2023-01-11T04:00:54.560Z,0.81
2023-01-11T04:02:26.173Z,0.54
2023-01-11T04:03:57.663Z,0.82
2023-01-11T04:05:29.060Z,0.76
2023-01-11T04:07:00.607Z,1.25
2023-01-11T04:08:31.898Z,1.30
2023-01-11T04:10:03.264Z,2.75
2023-01-11T04:11:34.992Z,1.80
2023-01-11T04:13:06.311Z,1.40
2023-01-11T04:14:37.684Z,1.58
2023-01-11T04:16:09.061Z,1.77
2023-01-11T04:17:40.490Z,1.55
2023-01-11T04:19:11.842Z,1.04
2023-01-11T04:20:43.259Z,1.24
2023-01-11T04:22:14.738Z,0.78
2023-01-11T04:23:46.128Z,0.56
2023-01-11T04:25:17.404Z,0.81
2023-01-11T04:26:48.856Z,1.75
2023-01-11T04:28:20.285Z,0.84
2023-01-11T04:29:51.543Z,1.87
2023-01-11T04:31:22.993Z,0.82
2023-01-11T04:32:54.436Z,1.15
2023-01-11T04:34:25.799Z,0.96
2023-01-11T04:35:57.711Z,0.72
2023-01-11T04:37:29.084Z,0.71
2023-01-11T04:39:00.474Z,0.46
2023-01-11T04:40:32.152Z,1.17
2023-01-11T04:42:03.493Z,1.17
2023-01-11T04:43:34.733Z,0.80
2023-01-11T04:45:06.065Z,1.11
2023-01-11T04:46:37.490Z,1.21
2023-01-11T04:48:08.787Z,1.16
2023-01-11T04:49:40.304Z,0.78
2023-01-11T04:51:11.634Z,1.11
2023-01-11T04:52:47.889Z,1.25
2023-01-11T04:54:19.367Z,1.43
2023-01-11T04:55:50.853Z,1.15
2023-01-11T04:57:22.153Z,0.99
2023-01-11T04:58:53.459Z,1.71
2023-01-11T05:00:24.944Z,0.71
2023-01-11T05:01:56.418Z,0.94
2023-01-11T05:03:27.734Z,0.68
2023-01-11T05:04:59.239Z,0.77
2023-01-11T05:06:30.762Z,0.51
2023-01-11T05:08:02.053Z,1.54
2023-01-11T05:09:33.299Z,0.67
2023-01-11T05:11:04.746Z,0.89
2023-01-11T05:12:35.991Z,0.63
2023-01-11T05:14:07.430Z,0.46
2023-01-11T05:15:38.941Z,0.41
2023-01-11T05:17:10.422Z,0.86
2023-01-11T05:18:42.071Z,0.58
2023-01-11T05:20:14.072Z,0.71
2023-01-11T05:21:45.333Z,1.11
2023-01-11T05:23:16.630Z,0.73
2023-01-11T05:24:47.867Z,1.07
2023-01-11T05:26:24.272Z,1.74
2023-01-11T05:27:55.652Z,1.59
2023-01-11T05:29:27.265Z,1.10
2023-01-11T05:30:58.627Z,1.00
2023-01-11T05:32:30.249Z,1.83
2023-01-11T05:34:01.560Z,1.09
2023-01-11T05:35:32.964Z,1.15
2023-01-11T05:37:04.315Z,1.32
2023-01-11T05:38:35.947Z,1.39
2023-01-11T05:40:07.351Z,1.55
2023-01-11T05:41:38.746Z,2.01
2023-01-11T05:43:10.106Z,2.22
2023-01-11T05:44:41.601Z,1.64
2023-01-11T05:46:13.355Z,3.19
2023-01-11T05:47:44.962Z,2.75
2023-01-11T05:49:16.401Z,0.79
2023-01-11T05:50:47.722Z,2.04
2023-01-11T05:52:19.164Z,1.57
2023-01-11T05:53:50.421Z,0.93
2023-01-11T05:55:21.671Z,1.49
2023-01-11T05:56:52.978Z,2.49
2023-01-11T05:58:24.302Z,1.17
2023-01-11T06:00:37.153Z,1.44
2023-01-11T06:02:08.551Z,1.22
2023-01-11T06:03:39.987Z,1.10
2023-01-11T06:05:12.799Z,0.82
2023-01-11T06:06:44.178Z,1.03
2023-01-11T06:08:16.758Z,1.04
2023-01-11T06:09:48.173Z,1.15
2023-01-11T06:11:19.570Z,0.68
2023-01-11T06:12:50.843Z,1.40
2023-01-11T06:14:22.166Z,1.01
2023-01-11T06:15:53.568Z,1.09
2023-01-11T06:17:24.834Z,1.16
2023-01-11T06:18:56.143Z,3.71
2023-01-11T06:20:27.551Z,2.17
2023-01-11T06:21:59.142Z,1.74
2023-01-11T06:23:30.550Z,2.06
2023-01-11T06:25:36.350Z,1.02
2023-01-11T06:27:09.260Z,2.63
2023-01-11T06:28:40.862Z,2.18
2023-01-11T06:30:12.139Z,2.36
2023-01-11T06:31:43.565Z,1.51
2023-01-11T06:33:15.084Z,1.19
2023-01-11T06:34:46.498Z,1.02
2023-01-11T06:36:17.860Z,1.11
2023-01-11T06:37:49.182Z,1.10
2023-01-11T06:39:20.653Z,1.69
2023-01-11T06:40:52.095Z,3.33
2023-01-11T06:42:23.466Z,2.52
2023-01-11T06:43:54.883Z,1.94
2023-01-11T06:45:26.667Z,1.95
2023-01-11T06:46:58.060Z,1.61
2023-01-11T06:48:29.397Z,1.10
2023-01-11T06:50:00.874Z,1.45
2023-01-11T06:51:56.016Z,2.14
2023-01-11T06:54:04.282Z,2.11
2023-01-11T06:55:35.999Z,1.72
2023-01-11T06:57:07.383Z,1.74
2023-01-11T06:58:38.834Z,1.85
2023-01-11T07:00:10.510Z,2.31
2023-01-11T07:01:41.910Z,1.59
2023-01-11T07:03:13.173Z,1.60
2023-01-11T07:04:44.661Z,1.40
2023-01-11T07:06:16.272Z,1.17
2023-01-11T07:07:47.834Z,1.17
2023-01-11T07:09:19.463Z,0.79
2023-01-11T07:10:50.836Z,1.42
2023-01-11T07:12:22.146Z,1.57
2023-01-11T07:13:53.437Z,1.02
2023-01-11T07:15:24.758Z,1.38
2023-01-11T07:16:56.319Z,1.44
2023-01-11T07:18:27.636Z,1.62
2023-01-11T07:19:59.090Z,0.92
2023-01-11T07:21:30.570Z,1.40
2023-01-11T07:23:03.034Z,1.49
2023-01-11T07:24:39.473Z,1.29
2023-01-11T07:26:10.803Z,0.84
2023-01-11T07:27:42.175Z,1.17
2023-01-11T07:29:13.452Z,1.35
2023-01-11T07:30:58.163Z,0.80
2023-01-11T07:32:30.216Z,1.29
2023-01-11T07:34:01.716Z,1.68
2023-01-11T07:35:34.368Z,2.28
2023-01-11T07:37:05.835Z,2.11
2023-01-11T07:38:37.131Z,2.69
2023-01-11T07:40:08.457Z,1.92
2023-01-11T07:41:40.210Z,1.64
2023-01-11T07:43:11.691Z,1.64
2023-01-11T07:44:43.140Z,1.48
2023-01-11T07:46:14.644Z,2.16
2023-01-11T07:47:46.056Z,2.31
2023-01-11T07:49:17.784Z,2.65
2023-01-11T07:50:54.241Z,3.06
2023-01-11T07:52:25.613Z,3.17
2023-01-11T07:53:56.893Z,3.19
2023-01-11T07:55:33.621Z,3.82
2023-01-11T07:57:04.949Z,4.11
2023-01-11T07:58:56.247Z,5.03
2023-01-11T08:00:27.680Z,4.43
2023-01-11T08:02:00.146Z,2.23
2023-01-11T08:03:32.942Z,2.11
2023-01-11T08:05:29.646Z,1.63
2023-01-11T08:07:21.483Z,2.85
2023-01-11T08:09:12.978Z,2.45
2023-01-11T08:10:44.425Z,2.17
2023-01-11T08:12:20.841Z,2.19
2023-01-11T08:13:52.185Z,1.91
2023-01-11T08:15:23.719Z,2.36
2023-01-11T08:16:55.238Z,2.87
2023-01-11T08:18:26.561Z,2.95
2023-01-11T08:19:57.850Z,2.53
2023-01-11T08:21:29.199Z,3.28
2023-01-11T08:23:05.452Z,2.71
2023-01-11T08:24:36.921Z,3.28
2023-01-11T08:26:09.036Z,4.39
2023-01-11T08:27:40.784Z,4.73
2023-01-11T08:29:12.183Z,4.29
2023-01-11T08:30:43.564Z,3.49
2023-01-11T08:32:14.945Z,3.45
2023-01-11T08:33:47.083Z,3.68
2023-01-11T08:35:18.756Z,4.86
2023-01-11T08:36:50.334Z,4.91
2023-01-11T08:38:21.691Z,4.58
2023-01-11T08:39:53.037Z,6.39
2023-01-11T08:41:24.736Z,6.05
2023-01-11T08:42:56.160Z,6.38
2023-01-11T08:44:34.020Z,5.11
2023-01-11T08:46:06.129Z,7.60
2023-01-11T08:47:37.574Z,6.39
2023-01-11T08:49:09.271Z,6.12
2023-01-11T08:50:40.610Z,7.18
2023-01-11T08:52:12.234Z,5.54
2023-01-11T08:53:43.840Z,7.89
2023-01-11T08:55:15.144Z,7.14
2023-01-11T08:56:46.944Z,6.30
2023-01-11T08:58:20.590Z,7.75
2023-01-11T08:59:52.516Z,7.81
2023-01-11T09:01:23.965Z,6.26
2023-01-11T09:02:55.385Z,8.65
2023-01-11T09:04:26.699Z,6.02
2023-01-11T09:05:58.078Z,7.54
2023-01-11T09:07:29.601Z,7.87
2023-01-11T09:09:02.146Z,6.94
2023-01-11T09:10:33.850Z,10.17
2023-01-11T09:12:05.847Z,8.44
2023-01-11T09:13:37.659Z,7.90
2023-01-11T09:15:09.152Z,9.48
2023-01-11T09:16:40.757Z,7.33
2023-01-11T09:18:12.339Z,7.26
2023-01-11T09:19:43.741Z,7.26
2023-01-11T09:21:15.072Z,5.58
2023-01-11T09:22:46.395Z,8.49
2023-01-11T09:24:17.885Z,8.05
2023-01-11T09:25:54.482Z,10.32
2023-01-11T09:27:25.763Z,8.57
2023-01-11T09:28:57.357Z,12.29
2023-01-11T09:30:28.610Z,15.61
2023-01-11T09:32:00.102Z,13.27
2023-01-11T09:33:31.535Z,15.52
2023-01-11T09:35:07.836Z,16.37
2023-01-11T09:36:39.196Z,10.83
2023-01-11T09:38:10.589Z,13.90
2023-01-11T09:39:42.115Z,22.54
2023-01-11T09:41:13.546Z,18.54
2023-01-11T09:42:44.811Z,15.81
2023-01-11T09:44:16.313Z,15.63
2023-01-11T09:45:47.660Z,20.47
2023-01-11T09:47:18.943Z,21.84
2023-01-11T09:48:50.463Z,12.59
2023-01-11T09:50:21.776Z,22.17
2023-01-11T09:51:53.272Z,22.99
2023-01-11T09:53:24.608Z,18.36
2023-01-11T09:54:55.996Z,17.02
2023-01-11T09:56:27.443Z,16.90
2023-01-11T09:57:58.958Z,20.24
2023-01-11T09:59:30.339Z,20.19
2023-01-11T10:01:01.804Z,19.88
2023-01-11T10:02:34.450Z,25.96
2023-01-11T10:04:05.842Z,22.07
2023-01-11T10:05:37.164Z,22.10
2023-01-11T10:07:08.465Z,25.27
2023-01-11T10:18:26.285Z,17.69
2023-01-11T10:20:13.769Z,20.72
2023-01-11T10:22:38.772Z,20.74
2023-01-11T10:24:10.641Z,24.96
2023-01-11T10:25:42.093Z,19.79
2023-01-11T10:27:14.722Z,21.56
2023-01-11T10:28:46.228Z,18.80
2023-01-11T10:30:18.289Z,22.95
2023-01-11T10:31:49.756Z,21.90
2023-01-11T10:33:21.710Z,24.51
2023-01-11T10:34:53.121Z,27.76
2023-01-11T10:36:24.833Z,22.76
2023-01-11T10:37:56.192Z,17.41
2023-01-11T10:39:27.858Z,20.87
2023-01-11T10:40:59.319Z,22.38
2023-01-11T10:42:30.919Z,19.15
2023-01-11T10:44:02.214Z,23.28
2023-01-11T10:45:33.739Z,26.62
2023-01-11T10:47:05.179Z,23.07
2023-01-11T10:48:36.635Z,24.04
2023-01-11T10:50:08.032Z,29.90
2023-01-11T10:51:39.347Z,24.91
2023-01-11T10:53:10.864Z,22.57
2023-01-11T10:54:44.973Z,20.12
2023-01-11T10:56:16.441Z,25.28
2023-01-11T10:58:01.513Z,18.82
2023-01-11T10:59:35.313Z,25.34
2023-01-11T11:01:07.170Z,20.45
2023-01-11T11:02:43.564Z,15.90
2023-01-11T11:04:14.877Z,21.95
2023-01-11T11:05:46.307Z,19.35
2023-01-11T11:07:17.641Z,22.48
2023-01-11T11:08:49.174Z,16.65
2023-01-11T11:10:20.588Z,17.36
2023-01-11T11:11:52.118Z,21.79
2023-01-11T11:13:23.457Z,19.66
2023-01-11T11:14:55.172Z,15.00
2023-01-11T11:16:26.583Z,15.01
2023-01-11T11:17:57.942Z,20.15
2023-01-11T11:19:29.575Z,20.76
2023-01-11T11:21:05.889Z,16.47
2023-01-11T11:22:38.038Z,12.93
2023-01-11T11:24:09.473Z,15.58
2023-01-11T11:25:43.305Z,14.09
2023-01-11T11:27:15.551Z,14.36
2023-01-11T11:28:46.988Z,15.52
2023-01-11T11:30:18.557Z,16.23
2023-01-11T11:31:50.224Z,15.38
2023-01-11T11:33:21.594Z,13.96
2023-01-11T11:34:52.956Z,16.42
2023-01-11T11:36:24.489Z,21.55
2023-01-11T11:37:55.955Z,12.79
2023-01-11T11:39:27.266Z,17.38
2023-01-11T11:40:58.674Z,18.42
2023-01-11T11:42:30.082Z,12.35
2023-01-11T11:44:01.537Z,16.08
2023-01-11T11:45:32.932Z,13.30
2023-01-11T11:47:04.773Z,13.87
2023-01-11T11:48:36.054Z,16.25
2023-01-11T11:50:07.387Z,10.90
2023-01-11T11:51:38.831Z,19.69
2023-01-11T11:53:10.256Z,15.85
2023-01-11T11:54:41.769Z,11.40
2023-01-11T11:56:13.048Z,13.00
2023-01-11T11:57:44.490Z,10.02
2023-01-11T11:59:15.812Z,11.73
2023-01-11T12:00:47.133Z,13.26
2023-01-11T12:02:18.740Z,21.20
2023-01-11T12:03:50.447Z,18.85
2023-01-11T12:05:21.744Z,22.85
2023-01-11T12:06:53.543Z,22.07
2023-01-11T12:08:25.205Z,18.85
2023-01-11T12:09:56.503Z,20.34
2023-01-11T12:11:28.036Z,21.09
2023-01-11T12:12:59.357Z,17.20
2023-01-11T12:14:30.653Z,12.28
2023-01-11T12:16:02.163Z,15.51
2023-01-11T12:17:34.019Z,14.54
2023-01-11T12:19:05.574Z,15.70
2023-01-11T12:20:36.977Z,15.96
2023-01-11T12:22:08.385Z,14.12
2023-01-11T12:23:39.867Z,13.44
2023-01-11T12:25:11.376Z,17.11
2023-01-11T12:26:42.798Z,15.55
2023-01-11T12:28:14.169Z,17.23
2023-01-11T12:29:45.593Z,18.65
2023-01-11T12:31:17.021Z,18.68
2023-01-11T12:32:48.543Z,17.32
2023-01-11T12:34:19.941Z,12.86
2023-01-11T12:35:51.426Z,12.62
2023-01-11T12:37:22.929Z,10.44
2023-01-11T12:38:54.779Z,10.57
2023-01-11T12:40:26.735Z,16.10
2023-01-11T12:41:58.671Z,11.98
2023-01-11T12:43:30.113Z,13.97
2023-01-11T12:45:11.947Z,17.00
2023-01-11T12:47:19.294Z,15.93
2023-01-11T12:49:06.475Z,15.09
2023-01-11T12:52:09.584Z,11.88
2023-01-11T12:53:40.939Z,14.30
2023-01-11T12:55:12.442Z,8.87
2023-01-11T12:57:09.466Z,9.40
2023-01-11T12:58:40.908Z,11.46
2023-01-11T13:00:12.514Z,12.38
2023-01-11T13:01:44.029Z,8.76
2023-01-11T13:03:15.478Z,11.04
2023-01-11T13:04:46.925Z,11.24
2023-01-11T13:06:18.523Z,8.55
2023-01-11T13:07:49.982Z,8.10
2023-01-11T13:09:21.397Z,14.17
2023-01-11T13:10:52.760Z,12.94
2023-01-11T13:12:24.054Z,11.91
2023-01-11T13:13:55.498Z,8.88
2023-01-11T13:15:27.034Z,8.57
2023-01-11T13:16:58.446Z,12.34
2023-01-11T13:18:29.881Z,11.47
2023-01-11T13:20:01.466Z,11.42
2023-01-11T13:21:33.384Z,8.96
2023-01-11T13:23:04.774Z,11.67
2023-01-11T13:24:36.093Z,8.75
2023-01-11T13:26:07.531Z,10.25
2023-01-11T13:27:39.395Z,9.85
2023-01-11T13:29:10.663Z,9.79
2023-01-11T13:30:43.181Z,13.18
2023-01-11T13:32:19.810Z,8.97
2023-01-11T13:33:51.231Z,8.86
2023-01-11T13:35:23.003Z,14.54
2023-01-11T13:36:54.464Z,10.25
2023-01-11T13:38:25.863Z,11.94
2023-01-11T13:39:57.187Z,11.71
2023-01-11T13:41:28.510Z,8.92
2023-01-11T13:42:59.827Z,11.47
2023-01-11T13:44:31.163Z,9.19
2023-01-11T13:46:02.925Z,8.38
2023-01-11T13:47:34.267Z,11.05
2023-01-11T13:49:05.545Z,15.39
2023-01-11T13:50:36.760Z,13.16
2023-01-11T13:52:08.192Z,10.24
2023-01-11T13:53:39.722Z,13.64
2023-01-11T13:55:14.356Z,8.96
2023-01-11T13:56:52.003Z,12.74
2023-01-11T13:58:23.610Z,13.55
2023-01-11T13:59:55.161Z,12.52
2023-01-11T14:01:26.592Z,11.03
2023-01-11T14:02:57.972Z,11.52
2023-01-11T14:04:29.324Z,10.53
2023-01-11T14:06:00.915Z,10.51
2023-01-11T14:07:32.219Z,13.47
2023-01-11T14:09:03.490Z,13.31
2023-01-11T14:10:34.814Z,15.01
2023-01-11T14:12:06.249Z,13.31
2023-01-11T14:13:37.887Z,13.47
2023-01-11T14:15:09.191Z,13.57
2023-01-11T14:16:40.613Z,13.45
2023-01-11T14:18:11.923Z,15.81
2023-01-11T14:19:43.212Z,15.04
2023-01-11T14:21:14.417Z,12.75
2023-01-11T14:22:45.667Z,11.47
2023-01-11T14:24:17.035Z,11.81
2023-01-11T14:25:48.709Z,10.41
2023-01-11T14:27:20.166Z,14.73
2023-01-11T14:28:51.644Z,14.35
2023-01-11T14:30:23.066Z,11.14
2023-01-11T14:31:54.417Z,9.72
2023-01-11T14:33:25.894Z,13.38
2023-01-11T14:34:57.567Z,13.56
2023-01-11T14:36:28.939Z,11.41
2023-01-11T14:38:00.369Z,10.15
2023-01-11T14:39:31.712Z,12.19
2023-01-11T14:41:03.449Z,14.12
2023-01-11T14:42:35.732Z,13.19
2023-01-11T14:44:07.335Z,15.20
2023-01-11T14:45:38.916Z,16.83
2023-01-11T14:47:10.205Z,15.40
2023-01-11T14:48:41.544Z,12.65
2023-01-11T14:50:13.100Z,12.97
2023-01-11T14:51:44.717Z,12.24
2023-01-11T14:53:16.004Z,14.29
2023-01-11T14:54:47.759Z,12.21
2023-01-11T14:56:24.138Z,17.12
2023-01-11T14:57:55.482Z,17.01
2023-01-11T14:59:27.009Z,15.09
2023-01-11T15:00:58.410Z,11.87
2023-01-11T15:02:39.815Z,14.35
2023-01-11T15:04:11.264Z,13.41
2023-01-11T15:05:42.681Z,11.52
2023-01-11T15:07:13.959Z,14.43
2023-01-11T15:08:45.292Z,10.39
2023-01-11T15:10:16.729Z,15.59
2023-01-11T15:11:48.269Z,13.92
2023-01-11T15:13:19.586Z,14.43
2023-01-11T15:14:51.091Z,13.01
2023-01-11T15:16:22.643Z,9.90
2023-01-11T15:17:53.952Z,14.29
2023-01-11T15:19:25.252Z,7.00
2023-01-11T15:20:56.600Z,9.29
2023-01-11T15:22:27.903Z,15.28
2023-01-11T15:23:59.603Z,15.09
2023-01-11T15:25:33.559Z,11.64
2023-01-11T15:27:05.154Z,12.53
2023-01-11T15:28:36.429Z,16.39
2023-01-11T15:30:07.709Z,14.23
2023-01-11T15:31:39.312Z,11.38
2023-01-11T15:33:10.792Z,12.40
2023-01-11T15:34:42.248Z,10.40
2023-01-11T15:36:13.486Z,14.56
2023-01-11T15:37:45.055Z,12.43
2023-01-11T15:39:16.416Z,13.61
2023-01-11T15:40:47.853Z,14.96
2023-01-11T15:42:19.119Z,14.03
2023-01-11T15:43:50.403Z,15.89
2023-01-11T15:45:21.925Z,15.17
2023-01-11T15:46:53.435Z,18.23
2023-01-11T15:48:25.280Z,16.54
2023-01-11T15:51:49.674Z,17.87
2023-01-11T15:53:28.452Z,18.40
2023-01-11T15:55:06.079Z,18.72
2023-01-11T15:56:38.484Z,19.08
2023-01-11T15:58:15.361Z,19.04
2023-01-11T15:59:47.606Z,17.84
2023-01-11T16:01:20.068Z,17.43
2023-01-11T16:02:52.094Z,19.40
2023-01-11T16:04:23.926Z,20.24
2023-01-11T16:05:55.825Z,20.86
2023-01-11T16:07:28.449Z,18.22
2023-01-11T16:09:00.139Z,22.44
2023-01-11T16:10:31.927Z,22.64
2023-01-11T16:12:03.923Z,19.34
2023-01-11T16:13:35.281Z,22.87
2023-01-11T16:15:39.807Z,20.82
2023-01-11T16:17:11.476Z,24.05
2023-01-11T16:18:43.290Z,19.56
2023-01-11T16:20:14.946Z,18.38
2023-01-11T16:21:49.390Z,22.56
2023-01-11T16:23:21.595Z,21.21
2023-01-11T16:24:53.612Z,21.42
2023-01-11T16:26:25.667Z,19.24
2023-01-11T16:27:58.580Z,22.36
2023-01-11T16:29:30.349Z,18.70
2023-01-11T16:31:02.062Z,18.01
2023-01-11T16:32:33.879Z,21.98
2023-01-11T16:34:06.011Z,23.79
2023-01-11T16:35:38.080Z,22.73
2023-01-11T16:37:10.001Z,22.70
2023-01-11T16:38:46.629Z,22.32
2023-01-11T16:40:18.431Z,22.15
2023-01-11T16:41:52.136Z,25.50
2023-01-11T16:43:23.711Z,22.07
2023-01-11T16:45:00.822Z,18.69
2023-01-11T16:46:32.630Z,20.55
2023-01-11T16:48:04.217Z,20.85
2023-01-11T16:49:36.265Z,21.68
2023-01-11T16:51:09.114Z,23.62
2023-01-11T16:52:40.856Z,21.41
2023-01-11T16:54:13.558Z,21.09
2023-01-11T16:55:45.973Z,23.13
2023-01-11T16:57:17.813Z,21.38
2023-01-11T16:58:54.877Z,21.36
2023-01-11T17:00:31.858Z,21.20
2023-01-11T17:02:04.617Z,19.06
2023-01-11T17:03:36.498Z,20.47
2023-01-11T17:05:08.219Z,21.08
2023-01-11T17:06:56.856Z,20.92
2023-01-11T17:08:28.601Z,20.41
2023-01-11T17:10:00.453Z,18.48
2023-01-11T17:11:33.486Z,19.80
2023-01-11T17:13:05.412Z,20.52
2023-01-11T17:14:37.208Z,21.23
2023-01-11T17:16:09.165Z,23.83
2023-01-11T17:17:41.316Z,20.36
2023-01-11T17:19:12.845Z,17.45
2023-01-11T17:20:45.011Z,19.44
2023-01-11T17:22:17.311Z,17.78
2023-01-11T17:23:49.203Z,21.34
2023-01-11T17:25:21.246Z,23.83
2023-01-11T17:26:52.854Z,19.35
2023-01-11T17:28:24.942Z,16.98
2023-01-11T17:29:56.737Z,26.94
2023-01-11T17:31:28.299Z,21.68
2023-01-11T17:32:59.932Z,16.93
2023-01-11T17:34:31.542Z,19.52
2023-01-11T17:36:12.883Z,16.98
2023-01-11T17:37:44.141Z,13.33
2023-01-11T17:39:50.297Z,17.00
2023-01-11T17:41:22.070Z,13.46
2023-01-11T17:42:58.490Z,13.92
2023-01-11T17:44:29.994Z,14.25
2023-01-11T17:46:01.379Z,15.82
2023-01-11T17:47:32.806Z,16.82
2023-01-11T17:49:04.397Z,14.08
2023-01-11T17:50:41.187Z,17.79
2023-01-11T17:52:12.705Z,17.41
2023-01-11T17:53:54.062Z,15.79
2023-01-11T17:55:45.745Z,11.27
2023-01-11T17:57:32.150Z,12.87
2023-01-11T17:59:16.834Z,10.60
2023-01-11T18:00:53.431Z,15.22
2023-01-11T18:02:34.743Z,15.40
2023-01-11T18:04:06.157Z,13.11
2023-01-11T18:05:37.416Z,17.46
2023-01-11T18:07:08.914Z,13.64
2023-01-11T18:08:40.672Z,10.45
2023-01-11T18:10:12.002Z,15.41
2023-01-11T18:11:44.621Z,17.47
2023-01-11T18:13:16.062Z,10.61
2023-01-11T18:14:47.455Z,12.72
2023-01-11T18:16:19.488Z,10.70
2023-01-11T18:17:51.260Z,16.17
2023-01-11T18:19:22.840Z,13.14
2023-01-11T18:21:04.153Z,14.24
2023-01-11T18:22:35.606Z,16.36
2023-01-11T18:24:12.185Z,12.39
2023-01-11T18:25:43.494Z,16.73
2023-01-11T18:27:14.950Z,13.14
2023-01-11T18:28:46.917Z,14.03
2023-01-11T18:30:18.301Z,18.11
2023-01-11T18:31:49.597Z,13.49
2023-01-11T18:33:26.427Z,13.87
2023-01-11T18:35:02.976Z,11.46
2023-01-11T18:36:34.545Z,15.70
2023-01-11T18:38:05.806Z,12.70
2023-01-11T18:39:47.079Z,14.04
2023-01-11T18:41:23.403Z,10.68
2023-01-11T18:43:00.383Z,13.31
2023-01-11T18:44:42.672Z,11.67
2023-01-11T18:46:24.585Z,8.50
2023-01-11T18:48:10.948Z,12.33
2023-01-11T18:49:42.337Z,12.59
2023-01-11T18:51:29.167Z,13.02
2023-01-11T18:53:05.502Z,16.44
2023-01-11T18:54:47.726Z,10.97
2023-01-11T18:56:34.579Z,13.62
2023-01-11T18:58:06.006Z,15.87
2023-01-11T19:00:07.626Z,13.05
2023-01-11T19:01:54.311Z,15.02
2023-01-11T19:03:50.781Z,15.51
2023-01-11T19:05:32.645Z,12.56
2023-01-11T19:07:03.996Z,14.95
2023-01-11T19:08:41.012Z,13.36
2023-01-11T19:10:17.815Z,10.51
2023-01-11T19:12:00.751Z,11.33
2023-01-11T19:13:52.420Z,10.32
2023-01-11T19:15:23.836Z,10.52
2023-01-11T19:16:55.300Z,15.29
2023-01-11T19:20:44.849Z,12.66
2023-01-11T19:22:26.166Z,11.23
2023-01-11T19:24:35.804Z,11.94
2023-01-11T19:26:26.860Z,9.89
2023-01-11T19:28:32.046Z,15.37
2023-01-11T19:30:28.785Z,13.30
2023-01-11T19:32:10.691Z,12.54
2023-01-11T19:33:53.199Z,13.85
2023-01-11T19:35:30.470Z,14.64
2023-01-11T19:37:02.289Z,15.56
2023-01-11T19:38:33.862Z,10.53
2023-01-11T19:40:05.319Z,13.34
2023-01-11T19:41:56.800Z,15.22
2023-01-11T19:43:43.578Z,15.79
2023-01-11T19:45:15.112Z,14.70
2023-01-11T19:47:10.390Z,11.86
2023-01-11T19:48:48.087Z,11.61
2023-01-11T19:50:20.078Z,14.51
2023-01-11T19:52:01.654Z,8.46
2023-01-11T19:53:33.853Z,10.72
2023-01-11T19:55:20.550Z,15.44
2023-01-11T19:57:12.203Z,12.24
2023-01-11T19:58:44.146Z,11.32
2023-01-11T20:00:15.709Z,12.48
2023-01-11T20:01:48.779Z,12.11
2023-01-11T20:03:40.548Z,13.41
2023-01-11T20:05:11.817Z,11.54
2023-01-11T20:06:49.990Z,9.93
2023-01-11T20:08:31.304Z,11.66
2023-01-11T20:10:02.893Z,11.76
2023-01-11T20:11:39.688Z,10.05
2023-01-11T20:13:26.043Z,14.57
2023-01-11T20:15:02.657Z,12.80
2023-01-11T20:16:34.127Z,13.70
2023-01-11T20:18:15.864Z,11.83
2023-01-11T20:19:47.488Z,13.20
2023-01-11T20:21:19.461Z,12.69
2023-01-11T20:22:52.982Z,11.27
2023-01-11T20:24:26.937Z,9.97
2023-01-11T20:25:58.589Z,9.26
2023-01-11T20:27:30.512Z,8.84
2023-01-11T20:29:02.159Z,12.78
2023-01-11T20:30:34.793Z,10.59
2023-01-11T20:32:27.869Z,12.95
2023-01-11T20:34:40.040Z,15.18
2023-01-11T20:36:23.113Z,12.11
2023-01-11T20:38:16.395Z,13.61